Monday, August 20, 2018, 12:14 AM CDT
Back to Local

KMDW, Chicago Midway Airport

Location: Chicago, IL, United States Lat: 41.783
Local Time: 12:14 AM CDT ( 5:14 GMT) Lon: -87.75
Time Zone: US/Central Elev: 620 ft

Show me the last for .
Show Decoded

2018-08-19 23:53 METAR KMDW 200453Z 12007KT 10SM FEW050 OVC250 25/19 A2996 RMK AO2 SLP133
                 T02500194 =
2018-08-19 22:53 METAR KMDW 200353Z 13006KT 10SM FEW050 OVC250 26/21 A2996 RMK AO2 SLP134
                 T02560206 =
2018-08-19 21:53 METAR KMDW 200253Z 10009KT 10SM FEW050 OVC250 26/22 A2996 RMK AO2 SLP135
                 T02560217 53009 =
2018-08-19 20:53 METAR KMDW 200153Z 09010KT 10SM FEW065 OVC250 26/21 A2995 RMK AO2 SLP131
                 T02560211 =
2018-08-19 19:53 METAR KMDW 200053Z 09008KT 10SM FEW055 OVC250 26/21 A2995 RMK AO2 SLP131
                 T02560211 =
2018-08-19 18:53 METAR KMDW 192353Z 09008KT 10SM OVC250 26/21 A2994 RMK AO2 SLP128 60000
                 T02610206 10294 20261 56004 =
2018-08-19 17:53 METAR KMDW 192253Z 08013KT 10SM FEW070 BKN250 27/21 A2994 RMK AO2 SLP129
                 T02670206 =
2018-08-19 16:53 METAR KMDW 192153Z 08011KT 10SM FEW070 BKN250 28/21 A2994 RMK AO2 SLP127
                 T02780206 =
2018-08-19 15:53 METAR KMDW 192053Z 08010KT 10SM FEW041 SCT065 BKN075 BKN250 29/20 A2995 RMK AO2
                 SLP130 60000 T02940200 58014 =
2018-08-19 14:53 METAR KMDW 191953Z 08006KT 10SM FEW037 BKN050 BKN060 BKN250 28/20 A2997 RMK AO2
                 RAB01E26 SLP137 TCU DSNT SW-NW-N P0000 T02830200 =
2018-08-19 13:53 METAR KMDW 191853Z 05005KT 10SM SCT035 BKN047 BKN070 BKN250 27/19 A2998 RMK AO2
                 SLP141 TCU DSNT W-NW-N T02720194 =
2018-08-19 12:53 METAR KMDW 191753Z 05007KT 020V090 10SM SCT035 BKN044 BKN070 28/19 A2999 RMK AO2
                 SLP144 T02780194 10289 20217 58004 =
2018-08-19 11:53 METAR KMDW 191653Z 11009KT 10SM SCT035 28/19 A2999 RMK AO2 SLP146 T02830194 =
2018-08-19 10:53 METAR KMDW 191553Z 08005KT 10SM SCT035 27/19 A2999 RMK AO2 SLP147 T02720189 =
2018-08-19 09:53 METAR KMDW 191453Z 00000KT 10SM FEW035 27/19 A3000 RMK AO2 SLP149 T02670194
                 53007 =
2018-08-19 08:53 METAR KMDW 191353Z 11006KT 10SM FEW016 26/19 A2999 RMK AO2 SLP146 T02560194 =
2018-08-19 07:53 METAR KMDW 191253Z 04003KT 10SM FEW016 FEW050 24/21 A2998 RMK AO2 SLP144
                 T02390206 =
2018-08-19 06:53 METAR KMDW 191153Z 02003KT 10SM FEW016 FEW050 22/20 A2998 RMK AO2 SLP142
                 T02170200 10233 20200 50002 =
2018-08-19 05:53 METAR KMDW 191053Z 33004KT 9SM FEW016 FEW050 21/19 A2998 RMK AO2 SLP143
                 T02060194 =
2018-08-19 04:53 METAR KMDW 190953Z 33003KT 10SM FEW016 FEW050 21/19 A2997 RMK AO2 SLP141
                 T02060194 =
2018-08-19 03:53 METAR KMDW 190853Z 00000KT 10SM FEW016 FEW050 21/19 A2997 RMK AO2 SLP139
                 T02110194 56007 =
2018-08-19 02:53 METAR KMDW 190753Z 00000KT 10SM FEW016 FEW050 22/19 A2998 RMK AO2 SLP141
                 T02220194 =
2018-08-19 01:53 METAR KMDW 190653Z 03004KT 10SM SCT016 SCT050 23/20 A2998 RMK AO2 SLP142
                 T02280200 =
2018-08-19 00:53 METAR KMDW 190553Z 01003KT 10SM BKN016 BKN050 23/20 A2999 RMK AO2 SLP146
                 T02280200 10250 20228 402780222 55001 =

Support USWX by starting your Amazon purchase here.